sensor_id;sensor_type;location;lat;lon;timestamp;P1;durP1;ratioP1;P2;durP2;ratioP2
15383;SDS011;7790;53.022;12.968;2022-11-20T00:02:38;5.23;;;1.00;;
15383;SDS011;7790;53.022;12.968;2022-11-20T00:06:39;3.50;;;1.23;;
15383;SDS011;7790;53.022;12.968;2022-11-20T00:10:40;1.10;;;1.00;;
15383;SDS011;7790;53.022;12.968;2022-11-20T00:14:41;2.10;;;0.77;;
15383;SDS011;7790;53.022;12.968;2022-11-20T00:18:42;1.30;;;0.70;;
15383;SDS011;7790;53.022;12.968;2022-11-20T00:22:44;1.60;;;0.90;;
15383;SDS011;7790;53.022;12.968;2022-11-20T00:26:44;0.80;;;0.80;;
15383;SDS011;7790;53.022;12.968;2022-11-20T00:30:45;0.93;;;0.90;;
15383;SDS011;7790;53.022;12.968;2022-11-20T00:34:46;1.60;;;0.60;;
15383;SDS011;7790;53.022;12.968;2022-11-20T00:38:50;1.33;;;0.70;;
15383;SDS011;7790;53.022;12.968;2022-11-20T00:42:52;1.33;;;0.90;;
15383;SDS011;7790;53.022;12.968;2022-11-20T00:46:53;0.90;;;0.90;;
15383;SDS011;7790;53.022;12.968;2022-11-20T00:50:54;0.70;;;0.70;;
15383;SDS011;7790;53.022;12.968;2022-11-20T00:54:55;0.97;;;0.90;;
15383;SDS011;7790;53.022;12.968;2022-11-20T00:58:58;0.87;;;0.70;;
15383;SDS011;7790;53.022;12.968;2022-11-20T01:03:00;0.97;;;0.97;;
15383;SDS011;7790;53.022;12.968;2022-11-20T01:07:01;0.93;;;0.80;;
15383;SDS011;7790;53.022;12.968;2022-11-20T01:11:02;1.20;;;1.10;;
15383;SDS011;7790;53.022;12.968;2022-11-20T01:15:05;0.80;;;0.80;;
15383;SDS011;7790;53.022;12.968;2022-11-20T01:19:07;0.90;;;0.90;;
15383;SDS011;7790;53.022;12.968;2022-11-20T01:23:12;0.80;;;0.80;;
15383;SDS011;7790;53.022;12.968;2022-11-20T01:27:13;1.00;;;0.90;;
15383;SDS011;7790;53.022;12.968;2022-11-20T01:31:18;0.70;;;0.70;;
15383;SDS011;7790;53.022;12.968;2022-11-20T01:35:22;1.47;;;0.80;;
15383;SDS011;7790;53.022;12.968;2022-11-20T01:39:24;0.77;;;0.77;;
15383;SDS011;7790;53.022;12.968;2022-11-20T01:43:26;1.00;;;0.90;;
15383;SDS011;7790;53.022;12.968;2022-11-20T01:56:16;1.03;;;0.93;;
15383;SDS011;7790;53.022;12.968;2022-11-20T02:00:18;1.00;;;0.90;;
15383;SDS011;7790;53.022;12.968;2022-11-20T02:04:20;1.00;;;1.00;;
15383;SDS011;7790;53.022;12.968;2022-11-20T02:08:22;0.93;;;0.93;;
15383;SDS011;7790;53.022;12.968;2022-11-20T02:12:24;0.90;;;0.90;;
15383;SDS011;7790;53.022;12.968;2022-11-20T02:16:44;0.90;;;0.90;;
15383;SDS011;7790;53.022;12.968;2022-11-20T02:20:48;1.00;;;1.00;;
15383;SDS011;7790;53.022;12.968;2022-11-20T02:24:53;0.93;;;0.80;;
15383;SDS011;7790;53.022;12.968;2022-11-20T02:28:54;1.07;;;1.07;;
15383;SDS011;7790;53.022;12.968;2022-11-20T02:32:57;1.30;;;1.20;;
15383;SDS011;7790;53.022;12.968;2022-11-20T02:36:58;1.00;;;1.00;;
15383;SDS011;7790;53.022;12.968;2022-11-20T02:41:00;1.20;;;1.20;;
15383;SDS011;7790;53.022;12.968;2022-11-20T02:45:00;1.10;;;1.10;;
15383;SDS011;7790;53.022;12.968;2022-11-20T02:49:02;1.00;;;1.00;;
15383;SDS011;7790;53.022;12.968;2022-11-20T02:53:03;1.30;;;1.20;;
15383;SDS011;7790;53.022;12.968;2022-11-20T02:57:04;1.20;;;1.10;;
15383;SDS011;7790;53.022;12.968;2022-11-20T03:01:05;1.20;;;1.20;;
15383;SDS011;7790;53.022;12.968;2022-11-20T03:05:06;1.10;;;1.10;;
15383;SDS011;7790;53.022;12.968;2022-11-20T03:09:07;1.00;;;1.00;;
15383;SDS011;7790;53.022;12.968;2022-11-20T03:13:07;1.10;;;1.10;;
15383;SDS011;7790;53.022;12.968;2022-11-20T03:17:08;1.00;;;1.00;;
15383;SDS011;7790;53.022;12.968;2022-11-20T03:21:10;1.60;;;1.30;;
15383;SDS011;7790;53.022;12.968;2022-11-20T03:25:12;1.00;;;1.00;;
15383;SDS011;7790;53.022;12.968;2022-11-20T03:29:13;1.30;;;1.20;;
15383;SDS011;7790;53.022;12.968;2022-11-20T03:33:14;1.10;;;1.10;;
15383;SDS011;7790;53.022;12.968;2022-11-20T03:37:15;1.10;;;1.10;;
15383;SDS011;7790;53.022;12.968;2022-11-20T03:41:17;1.00;;;1.00;;
15383;SDS011;7790;53.022;12.968;2022-11-20T03:45:19;1.20;;;1.20;;
15383;SDS011;7790;53.022;12.968;2022-11-20T03:49:20;1.40;;;1.30;;
15383;SDS011;7790;53.022;12.968;2022-11-20T03:53:21;1.13;;;1.03;;
15383;SDS011;7790;53.022;12.968;2022-11-20T03:57:22;1.37;;;1.27;;
15383;SDS011;7790;53.022;12.968;2022-11-20T04:01:24;1.03;;;1.03;;
15383;SDS011;7790;53.022;12.968;2022-11-20T04:05:27;1.10;;;1.10;;
15383;SDS011;7790;53.022;12.968;2022-11-20T04:09:28;1.07;;;1.03;;
15383;SDS011;7790;53.022;12.968;2022-11-20T04:13:29;1.10;;;1.10;;
15383;SDS011;7790;53.022;12.968;2022-11-20T04:17:30;1.37;;;1.27;;
15383;SDS011;7790;53.022;12.968;2022-11-20T04:21:30;1.20;;;1.10;;
15383;SDS011;7790;53.022;12.968;2022-11-20T04:25:32;1.17;;;1.17;;
15383;SDS011;7790;53.022;12.968;2022-11-20T04:29:32;1.03;;;1.03;;
15383;SDS011;7790;53.022;12.968;2022-11-20T04:33:34;1.10;;;1.10;;
15383;SDS011;7790;53.022;12.968;2022-11-20T04:37:35;1.13;;;1.10;;
15383;SDS011;7790;53.022;12.968;2022-11-20T04:41:36;1.10;;;1.10;;
15383;SDS011;7790;53.022;12.968;2022-11-20T04:45:37;1.40;;;1.30;;
15383;SDS011;7790;53.022;12.968;2022-11-20T04:49:37;1.20;;;1.20;;
15383;SDS011;7790;53.022;12.968;2022-11-20T04:53:38;1.13;;;1.13;;
15383;SDS011;7790;53.022;12.968;2022-11-20T04:57:39;1.07;;;1.07;;
15383;SDS011;7790;53.022;12.968;2022-11-20T05:01:40;0.97;;;0.97;;
15383;SDS011;7790;53.022;12.968;2022-11-20T05:05:41;1.40;;;1.20;;
15383;SDS011;7790;53.022;12.968;2022-11-20T05:09:42;1.20;;;1.10;;
15383;SDS011;7790;53.022;12.968;2022-11-20T05:13:42;1.27;;;1.23;;
15383;SDS011;7790;53.022;12.968;2022-11-20T05:17:50;2.07;;;1.27;;
15383;SDS011;7790;53.022;12.968;2022-11-20T05:21:51;1.40;;;1.30;;
15383;SDS011;7790;53.022;12.968;2022-11-20T05:25:53;1.30;;;1.20;;
15383;SDS011;7790;53.022;12.968;2022-11-20T05:29:54;1.30;;;1.27;;
15383;SDS011;7790;53.022;12.968;2022-11-20T05:33:56;1.17;;;1.17;;
15383;SDS011;7790;53.022;12.968;2022-11-20T05:37:57;1.23;;;1.13;;
15383;SDS011;7790;53.022;12.968;2022-11-20T05:41:58;2.03;;;1.10;;
15383;SDS011;7790;53.022;12.968;2022-11-20T05:46:18;1.27;;;1.27;;
15383;SDS011;7790;53.022;12.968;2022-11-20T05:50:20;1.33;;;1.23;;
15383;SDS011;7790;53.022;12.968;2022-11-20T05:54:21;1.10;;;1.10;;
15383;SDS011;7790;53.022;12.968;2022-11-20T05:58:22;1.30;;;1.30;;
15383;SDS011;7790;53.022;12.968;2022-11-20T06:02:23;1.40;;;1.30;;
15383;SDS011;7790;53.022;12.968;2022-11-20T06:06:23;1.53;;;1.20;;
15383;SDS011;7790;53.022;12.968;2022-11-20T06:10:26;1.50;;;1.40;;
15383;SDS011;7790;53.022;12.968;2022-11-20T06:14:26;1.60;;;1.50;;
15383;SDS011;7790;53.022;12.968;2022-11-20T06:18:28;1.40;;;1.30;;
15383;SDS011;7790;53.022;12.968;2022-11-20T06:22:29;2.10;;;2.00;;
15383;SDS011;7790;53.022;12.968;2022-11-20T06:26:32;2.27;;;2.17;;
15383;SDS011;7790;53.022;12.968;2022-11-20T06:30:33;2.23;;;2.10;;
15383;SDS011;7790;53.022;12.968;2022-11-20T06:34:34;2.37;;;2.27;;
15383;SDS011;7790;53.022;12.968;2022-11-20T06:38:34;2.67;;;2.47;;
15383;SDS011;7790;53.022;12.968;2022-11-20T06:42:35;2.47;;;2.37;;
15383;SDS011;7790;53.022;12.968;2022-11-20T06:46:36;2.30;;;2.20;;
15383;SDS011;7790;53.022;12.968;2022-11-20T06:50:37;3.67;;;2.37;;
15383;SDS011;7790;53.022;12.968;2022-11-20T06:54:38;2.70;;;2.50;;
15383;SDS011;7790;53.022;12.968;2022-11-20T06:58:38;2.37;;;2.20;;
15383;SDS011;7790;53.022;12.968;2022-11-20T07:02:39;2.43;;;2.23;;
15383;SDS011;7790;53.022;12.968;2022-11-20T07:06:40;2.60;;;2.40;;
15383;SDS011;7790;53.022;12.968;2022-11-20T07:10:41;2.60;;;2.47;;
15383;SDS011;7790;53.022;12.968;2022-11-20T07:14:42;2.47;;;2.37;;
15383;SDS011;7790;53.022;12.968;2022-11-20T07:18:43;2.53;;;2.33;;
15383;SDS011;7790;53.022;12.968;2022-11-20T07:22:44;2.57;;;2.37;;
15383;SDS011;7790;53.022;12.968;2022-11-20T07:26:46;2.60;;;2.40;;
15383;SDS011;7790;53.022;12.968;2022-11-20T07:30:52;2.27;;;2.17;;
15383;SDS011;7790;53.022;12.968;2022-11-20T07:34:53;2.50;;;2.30;;
15383;SDS011;7790;53.022;12.968;2022-11-20T07:38:54;2.97;;;2.40;;
15383;SDS011;7790;53.022;12.968;2022-11-20T07:42:55;2.20;;;2.10;;
15383;SDS011;7790;53.022;12.968;2022-11-20T07:46:56;4.37;;;2.50;;
15383;SDS011;7790;53.022;12.968;2022-11-20T07:50:57;5.57;;;2.50;;
15383;SDS011;7790;53.022;12.968;2022-11-20T07:54:58;7.80;;;2.70;;
15383;SDS011;7790;53.022;12.968;2022-11-20T07:58:59;10.03;;;2.70;;
15383;SDS011;7790;53.022;12.968;2022-11-20T08:03:02;12.20;;;2.90;;
15383;SDS011;7790;53.022;12.968;2022-11-20T08:07:04;8.40;;;2.60;;
15383;SDS011;7790;53.022;12.968;2022-11-20T08:11:05;4.57;;;2.53;;
15383;SDS011;7790;53.022;12.968;2022-11-20T08:15:25;9.20;;;2.93;;
15383;SDS011;7790;53.022;12.968;2022-11-20T08:19:25;7.00;;;2.80;;
15383;SDS011;7790;53.022;12.968;2022-11-20T08:23:26;6.63;;;2.40;;
15383;SDS011;7790;53.022;12.968;2022-11-20T08:27:27;8.80;;;2.60;;
15383;SDS011;7790;53.022;12.968;2022-11-20T08:31:28;6.50;;;2.60;;
15383;SDS011;7790;53.022;12.968;2022-11-20T08:35:32;4.97;;;2.60;;
15383;SDS011;7790;53.022;12.968;2022-11-20T08:39:34;7.00;;;2.60;;
15383;SDS011;7790;53.022;12.968;2022-11-20T08:43:34;4.60;;;2.50;;
15383;SDS011;7790;53.022;12.968;2022-11-20T08:47:35;7.20;;;2.77;;
15383;SDS011;7790;53.022;12.968;2022-11-20T08:51:38;4.30;;;2.43;;
15383;SDS011;7790;53.022;12.968;2022-11-20T08:55:39;4.40;;;2.90;;
15383;SDS011;7790;53.022;12.968;2022-11-20T08:59:40;6.80;;;2.77;;
15383;SDS011;7790;53.022;12.968;2022-11-20T09:03:40;4.70;;;2.60;;
15383;SDS011;7790;53.022;12.968;2022-11-20T09:07:42;7.33;;;3.17;;
15383;SDS011;7790;53.022;12.968;2022-11-20T09:11:42;7.90;;;3.13;;
15383;SDS011;7790;53.022;12.968;2022-11-20T09:15:43;8.70;;;2.80;;
15383;SDS011;7790;53.022;12.968;2022-11-20T09:19:44;7.90;;;2.70;;
15383;SDS011;7790;53.022;12.968;2022-11-20T09:23:45;6.20;;;2.77;;
15383;SDS011;7790;53.022;12.968;2022-11-20T09:27:54;4.87;;;2.80;;
15383;SDS011;7790;53.022;12.968;2022-11-20T09:31:56;10.77;;;3.30;;
15383;SDS011;7790;53.022;12.968;2022-11-20T09:35:56;6.80;;;3.93;;
15383;SDS011;7790;53.022;12.968;2022-11-20T09:40:00;5.87;;;3.43;;
15383;SDS011;7790;53.022;12.968;2022-11-20T09:57:28;4.67;;;3.40;;
15383;SDS011;7790;53.022;12.968;2022-11-20T10:01:36;4.53;;;3.03;;
15383;SDS011;7790;53.022;12.968;2022-11-20T10:05:40;6.00;;;2.60;;
15383;SDS011;7790;53.022;12.968;2022-11-20T10:09:50;5.83;;;2.90;;
15383;SDS011;7790;53.022;12.968;2022-11-20T10:14:01;4.77;;;3.10;;
15383;SDS011;7790;53.022;12.968;2022-11-20T10:18:37;4.27;;;2.60;;
15383;SDS011;7790;53.022;12.968;2022-11-20T10:31:33;6.00;;;2.70;;
15383;SDS011;7790;53.022;12.968;2022-11-20T10:40:41;13.63;;;3.50;;
15383;SDS011;7790;53.022;12.968;2022-11-20T10:44:47;6.30;;;3.10;;
15383;SDS011;7790;53.022;12.968;2022-11-20T10:49:01;7.37;;;2.73;;
15383;SDS011;7790;53.022;12.968;2022-11-20T11:02:24;6.10;;;2.90;;
15383;SDS011;7790;53.022;12.968;2022-11-20T11:06:42;6.47;;;2.73;;
15383;SDS011;7790;53.022;12.968;2022-11-20T11:10:57;4.53;;;2.50;;
15383;SDS011;7790;53.022;12.968;2022-11-20T11:15:01;7.70;;;2.47;;
15383;SDS011;7790;53.022;12.968;2022-11-20T11:19:03;4.33;;;2.50;;
15383;SDS011;7790;53.022;12.968;2022-11-20T11:23:22;5.87;;;2.50;;
15383;SDS011;7790;53.022;12.968;2022-11-20T11:27:30;5.10;;;2.60;;
15383;SDS011;7790;53.022;12.968;2022-11-20T11:31:32;4.47;;;2.23;;
15383;SDS011;7790;53.022;12.968;2022-11-20T11:35:38;3.70;;;2.57;;
15383;SDS011;7790;53.022;12.968;2022-11-20T11:39:48;3.53;;;2.33;;
15383;SDS011;7790;53.022;12.968;2022-11-20T11:43:53;4.63;;;2.60;;
15383;SDS011;7790;53.022;12.968;2022-11-20T11:48:32;5.40;;;3.07;;
15383;SDS011;7790;53.022;12.968;2022-11-20T11:52:42;5.93;;;2.60;;
15383;SDS011;7790;53.022;12.968;2022-11-20T11:56:49;4.97;;;2.63;;
15383;SDS011;7790;53.022;12.968;2022-11-20T12:00:58;3.07;;;2.40;;
15383;SDS011;7790;53.022;12.968;2022-11-20T12:05:30;4.33;;;2.70;;
15383;SDS011;7790;53.022;12.968;2022-11-20T12:09:51;4.20;;;2.60;;
15383;SDS011;7790;53.022;12.968;2022-11-20T12:13:58;3.80;;;2.27;;
15383;SDS011;7790;53.022;12.968;2022-11-20T12:18:08;5.30;;;2.67;;
15383;SDS011;7790;53.022;12.968;2022-11-20T12:22:31;4.60;;;2.30;;
15383;SDS011;7790;53.022;12.968;2022-11-20T12:31:17;11.97;;;2.80;;
15383;SDS011;7790;53.022;12.968;2022-11-20T12:40:52;8.80;;;2.60;;
15383;SDS011;7790;53.022;12.968;2022-11-20T12:49:46;11.70;;;2.70;;
15383;SDS011;7790;53.022;12.968;2022-11-20T13:03:15;7.20;;;2.40;;
15383;SDS011;7790;53.022;12.968;2022-11-20T13:07:19;3.47;;;2.10;;
15383;SDS011;7790;53.022;12.968;2022-11-20T13:15:47;4.60;;;2.27;;
15383;SDS011;7790;53.022;12.968;2022-11-20T13:19:57;3.87;;;1.90;;
15383;SDS011;7790;53.022;12.968;2022-11-20T13:24:05;2.13;;;1.90;;
15383;SDS011;7790;53.022;12.968;2022-11-20T13:28:27;6.07;;;2.27;;
15383;SDS011;7790;53.022;12.968;2022-11-20T13:32:30;7.10;;;2.10;;
15383;SDS011;7790;53.022;12.968;2022-11-20T13:36:32;5.03;;;1.80;;
15383;SDS011;7790;53.022;12.968;2022-11-20T13:40:39;3.27;;;1.80;;
15383;SDS011;7790;53.022;12.968;2022-11-20T13:44:51;2.13;;;1.83;;
15383;SDS011;7790;53.022;12.968;2022-11-20T13:49:05;2.73;;;1.60;;
15383;SDS011;7790;53.022;12.968;2022-11-20T14:01:44;5.20;;;1.90;;
15383;SDS011;7790;53.022;12.968;2022-11-20T14:05:56;2.03;;;1.63;;
15383;SDS011;7790;53.022;12.968;2022-11-20T14:10:03;2.17;;;1.53;;
15383;SDS011;7790;53.022;12.968;2022-11-20T14:14:10;2.10;;;1.80;;
15383;SDS011;7790;53.022;12.968;2022-11-20T14:18:19;3.40;;;1.87;;
15383;SDS011;7790;53.022;12.968;2022-11-20T14:22:23;2.83;;;1.57;;
15383;SDS011;7790;53.022;12.968;2022-11-20T14:26:25;1.63;;;1.50;;
15383;SDS011;7790;53.022;12.968;2022-11-20T14:30:26;1.70;;;1.57;;
15383;SDS011;7790;53.022;12.968;2022-11-20T14:34:30;2.23;;;2.03;;
15383;SDS011;7790;53.022;12.968;2022-11-20T14:38:35;1.70;;;1.40;;
15383;SDS011;7790;53.022;12.968;2022-11-20T14:42:36;2.67;;;1.77;;
15383;SDS011;7790;53.022;12.968;2022-11-20T14:46:37;2.60;;;1.70;;
15383;SDS011;7790;53.022;12.968;2022-11-20T14:50:38;4.10;;;1.57;;
15383;SDS011;7790;53.022;12.968;2022-11-20T14:54:46;1.73;;;1.47;;
15383;SDS011;7790;53.022;12.968;2022-11-20T14:58:55;2.23;;;1.53;;
15383;SDS011;7790;53.022;12.968;2022-11-20T15:02:59;3.97;;;1.80;;
15383;SDS011;7790;53.022;12.968;2022-11-20T15:07:00;3.87;;;1.70;;
15383;SDS011;7790;53.022;12.968;2022-11-20T15:11:01;1.80;;;1.70;;
15383;SDS011;7790;53.022;12.968;2022-11-20T15:15:03;2.63;;;1.47;;
15383;SDS011;7790;53.022;12.968;2022-11-20T15:19:08;2.20;;;1.90;;
15383;SDS011;7790;53.022;12.968;2022-11-20T15:23:20;3.37;;;1.70;;
15383;SDS011;7790;53.022;12.968;2022-11-20T15:27:21;2.03;;;1.83;;
15383;SDS011;7790;53.022;12.968;2022-11-20T15:31:22;2.83;;;1.87;;
15383;SDS011;7790;53.022;12.968;2022-11-20T15:35:24;1.50;;;1.40;;
15383;SDS011;7790;53.022;12.968;2022-11-20T15:39:24;3.60;;;2.00;;
15383;SDS011;7790;53.022;12.968;2022-11-20T15:43:25;2.57;;;1.73;;
15383;SDS011;7790;53.022;12.968;2022-11-20T15:47:27;5.37;;;1.77;;
15383;SDS011;7790;53.022;12.968;2022-11-20T15:51:31;1.53;;;1.43;;
15383;SDS011;7790;53.022;12.968;2022-11-20T15:55:52;2.03;;;1.60;;
15383;SDS011;7790;53.022;12.968;2022-11-20T15:59:53;3.73;;;1.70;;
15383;SDS011;7790;53.022;12.968;2022-11-20T16:03:54;3.97;;;2.00;;
15383;SDS011;7790;53.022;12.968;2022-11-20T16:07:55;2.13;;;1.90;;
15383;SDS011;7790;53.022;12.968;2022-11-20T16:11:56;2.13;;;1.70;;
15383;SDS011;7790;53.022;12.968;2022-11-20T16:16:00;1.93;;;1.67;;
15383;SDS011;7790;53.022;12.968;2022-11-20T16:20:09;3.10;;;1.60;;
15383;SDS011;7790;53.022;12.968;2022-11-20T16:24:12;1.57;;;1.40;;
15383;SDS011;7790;53.022;12.968;2022-11-20T16:28:14;1.40;;;1.30;;
15383;SDS011;7790;53.022;12.968;2022-11-20T16:32:15;1.67;;;1.57;;
15383;SDS011;7790;53.022;12.968;2022-11-20T16:36:16;1.70;;;1.60;;
15383;SDS011;7790;53.022;12.968;2022-11-20T16:40:17;2.93;;;1.57;;
15383;SDS011;7790;53.022;12.968;2022-11-20T16:44:18;1.80;;;1.70;;
15383;SDS011;7790;53.022;12.968;2022-11-20T16:48:19;1.83;;;1.60;;
15383;SDS011;7790;53.022;12.968;2022-11-20T16:52:20;2.87;;;1.67;;
15383;SDS011;7790;53.022;12.968;2022-11-20T16:56:25;1.70;;;1.60;;
15383;SDS011;7790;53.022;12.968;2022-11-20T17:00:26;1.73;;;1.63;;
15383;SDS011;7790;53.022;12.968;2022-11-20T17:04:27;3.37;;;1.53;;
15383;SDS011;7790;53.022;12.968;2022-11-20T17:08:28;1.70;;;1.50;;
15383;SDS011;7790;53.022;12.968;2022-11-20T17:12:29;1.60;;;1.50;;
15383;SDS011;7790;53.022;12.968;2022-11-20T17:16:30;3.50;;;2.00;;
15383;SDS011;7790;53.022;12.968;2022-11-20T17:20:31;2.60;;;1.70;;
15383;SDS011;7790;53.022;12.968;2022-11-20T17:24:32;4.13;;;1.60;;
15383;SDS011;7790;53.022;12.968;2022-11-20T17:28:33;3.17;;;1.90;;
15383;SDS011;7790;53.022;12.968;2022-11-20T17:32:34;4.60;;;2.43;;
15383;SDS011;7790;53.022;12.968;2022-11-20T17:36:35;4.20;;;2.23;;
15383;SDS011;7790;53.022;12.968;2022-11-20T17:40:36;3.67;;;2.63;;
15383;SDS011;7790;53.022;12.968;2022-11-20T17:44:37;4.90;;;2.97;;
15383;SDS011;7790;53.022;12.968;2022-11-20T17:48:38;4.63;;;2.87;;
15383;SDS011;7790;53.022;12.968;2022-11-20T17:52:42;4.30;;;2.70;;
15383;SDS011;7790;53.022;12.968;2022-11-20T17:56:43;4.67;;;3.20;;
15383;SDS011;7790;53.022;12.968;2022-11-20T18:01:03;9.37;;;2.23;;
15383;SDS011;7790;53.022;12.968;2022-11-20T18:05:05;6.20;;;2.60;;
15383;SDS011;7790;53.022;12.968;2022-11-20T18:09:06;6.23;;;2.70;;
15383;SDS011;7790;53.022;12.968;2022-11-20T18:13:07;6.53;;;3.30;;
15383;SDS011;7790;53.022;12.968;2022-11-20T18:17:09;3.63;;;2.73;;
15383;SDS011;7790;53.022;12.968;2022-11-20T18:21:12;5.17;;;3.10;;
15383;SDS011;7790;53.022;12.968;2022-11-20T18:25:12;5.93;;;3.03;;
15383;SDS011;7790;53.022;12.968;2022-11-20T18:29:13;5.60;;;2.57;;
15383;SDS011;7790;53.022;12.968;2022-11-20T18:33:14;3.20;;;2.90;;
15383;SDS011;7790;53.022;12.968;2022-11-20T18:37:16;3.60;;;3.03;;
15383;SDS011;7790;53.022;12.968;2022-11-20T18:41:19;5.97;;;2.87;;
15383;SDS011;7790;53.022;12.968;2022-11-20T18:45:39;5.87;;;3.00;;
15383;SDS011;7790;53.022;12.968;2022-11-20T18:49:43;4.57;;;2.87;;
15383;SDS011;7790;53.022;12.968;2022-11-20T18:53:49;5.70;;;2.90;;
15383;SDS011;7790;53.022;12.968;2022-11-20T18:57:50;5.17;;;2.80;;
15383;SDS011;7790;53.022;12.968;2022-11-20T19:01:51;3.37;;;2.63;;
15383;SDS011;7790;53.022;12.968;2022-11-20T19:05:52;4.80;;;2.80;;
15383;SDS011;7790;53.022;12.968;2022-11-20T19:09:53;3.20;;;2.40;;
15383;SDS011;7790;53.022;12.968;2022-11-20T19:13:54;2.60;;;2.20;;
15383;SDS011;7790;53.022;12.968;2022-11-20T19:17:55;2.93;;;2.40;;
15383;SDS011;7790;53.022;12.968;2022-11-20T19:21:56;3.20;;;2.20;;
15383;SDS011;7790;53.022;12.968;2022-11-20T19:25:58;3.17;;;2.70;;
15383;SDS011;7790;53.022;12.968;2022-11-20T19:29:59;3.33;;;2.30;;
15383;SDS011;7790;53.022;12.968;2022-11-20T19:34:02;2.73;;;2.40;;
15383;SDS011;7790;53.022;12.968;2022-11-20T19:38:03;2.13;;;1.93;;
15383;SDS011;7790;53.022;12.968;2022-11-20T19:42:05;6.03;;;2.20;;
15383;SDS011;7790;53.022;12.968;2022-11-20T19:46:06;4.63;;;2.10;;
15383;SDS011;7790;53.022;12.968;2022-11-20T19:50:07;4.73;;;2.20;;
15383;SDS011;7790;53.022;12.968;2022-11-20T19:54:08;2.83;;;1.90;;
15383;SDS011;7790;53.022;12.968;2022-11-20T19:58:09;4.63;;;2.30;;
15383;SDS011;7790;53.022;12.968;2022-11-20T20:02:10;3.33;;;2.00;;
15383;SDS011;7790;53.022;12.968;2022-11-20T20:06:12;5.67;;;2.40;;
15383;SDS011;7790;53.022;12.968;2022-11-20T20:10:18;3.43;;;2.10;;
15383;SDS011;7790;53.022;12.968;2022-11-20T20:14:19;2.30;;;2.10;;
15383;SDS011;7790;53.022;12.968;2022-11-20T20:18:20;4.73;;;2.40;;
15383;SDS011;7790;53.022;12.968;2022-11-20T20:22:22;4.53;;;2.33;;
15383;SDS011;7790;53.022;12.968;2022-11-20T20:26:24;2.63;;;2.07;;
15383;SDS011;7790;53.022;12.968;2022-11-20T20:30:25;2.80;;;2.47;;
15383;SDS011;7790;53.022;12.968;2022-11-20T20:34:26;2.73;;;2.10;;
15383;SDS011;7790;53.022;12.968;2022-11-20T20:38:28;2.97;;;2.50;;
15383;SDS011;7790;53.022;12.968;2022-11-20T20:42:29;2.70;;;2.40;;
15383;SDS011;7790;53.022;12.968;2022-11-20T20:46:31;2.70;;;2.30;;
15383;SDS011;7790;53.022;12.968;2022-11-20T20:50:32;2.57;;;2.10;;
15383;SDS011;7790;53.022;12.968;2022-11-20T20:54:33;2.20;;;2.00;;
15383;SDS011;7790;53.022;12.968;2022-11-20T20:58:33;2.73;;;2.03;;
15383;SDS011;7790;53.022;12.968;2022-11-20T21:02:34;2.90;;;1.90;;
15383;SDS011;7790;53.022;12.968;2022-11-20T21:06:35;2.00;;;1.90;;
15383;SDS011;7790;53.022;12.968;2022-11-20T21:10:36;2.80;;;2.27;;
15383;SDS011;7790;53.022;12.968;2022-11-20T21:14:38;2.03;;;1.83;;
15383;SDS011;7790;53.022;12.968;2022-11-20T21:18:39;4.00;;;2.07;;
15383;SDS011;7790;53.022;12.968;2022-11-20T21:22:40;1.93;;;1.73;;
15383;SDS011;7790;53.022;12.968;2022-11-20T21:26:41;2.00;;;1.70;;
15383;SDS011;7790;53.022;12.968;2022-11-20T21:30:41;2.13;;;1.90;;
15383;SDS011;7790;53.022;12.968;2022-11-20T21:34:42;2.63;;;1.90;;
15383;SDS011;7790;53.022;12.968;2022-11-20T21:38:43;2.00;;;1.80;;
15383;SDS011;7790;53.022;12.968;2022-11-20T21:42:44;2.10;;;1.90;;
15383;SDS011;7790;53.022;12.968;2022-11-20T21:46:45;1.83;;;1.67;;
15383;SDS011;7790;53.022;12.968;2022-11-20T21:50:46;2.47;;;1.80;;
15383;SDS011;7790;53.022;12.968;2022-11-20T21:54:47;2.03;;;1.80;;
15383;SDS011;7790;53.022;12.968;2022-11-20T21:58:48;1.63;;;1.53;;
15383;SDS011;7790;53.022;12.968;2022-11-20T22:02:49;2.13;;;1.93;;
15383;SDS011;7790;53.022;12.968;2022-11-20T22:06:49;2.03;;;1.70;;
15383;SDS011;7790;53.022;12.968;2022-11-20T22:10:54;1.60;;;1.50;;
15383;SDS011;7790;53.022;12.968;2022-11-20T22:14:59;2.10;;;1.70;;
15383;SDS011;7790;53.022;12.968;2022-11-20T22:18:59;2.00;;;1.80;;
15383;SDS011;7790;53.022;12.968;2022-11-20T22:23:00;1.80;;;1.70;;
15383;SDS011;7790;53.022;12.968;2022-11-20T22:27:01;1.80;;;1.70;;
15383;SDS011;7790;53.022;12.968;2022-11-20T22:31:03;1.90;;;1.80;;
15383;SDS011;7790;53.022;12.968;2022-11-20T22:35:06;1.60;;;1.50;;
15383;SDS011;7790;53.022;12.968;2022-11-20T22:39:07;1.50;;;1.40;;
15383;SDS011;7790;53.022;12.968;2022-11-20T22:43:08;1.67;;;1.57;;
15383;SDS011;7790;53.022;12.968;2022-11-20T22:47:09;1.63;;;1.53;;
15383;SDS011;7790;53.022;12.968;2022-11-20T22:51:11;1.70;;;1.60;;
15383;SDS011;7790;53.022;12.968;2022-11-20T22:55:13;1.80;;;1.60;;
15383;SDS011;7790;53.022;12.968;2022-11-20T22:59:13;1.77;;;1.67;;
15383;SDS011;7790;53.022;12.968;2022-11-20T23:03:17;2.13;;;1.67;;
15383;SDS011;7790;53.022;12.968;2022-11-20T23:07:18;2.57;;;1.70;;
15383;SDS011;7790;53.022;12.968;2022-11-20T23:11:20;3.03;;;1.53;;
15383;SDS011;7790;53.022;12.968;2022-11-20T23:15:23;1.70;;;1.60;;
15383;SDS011;7790;53.022;12.968;2022-11-20T23:19:24;1.83;;;1.73;;
15383;SDS011;7790;53.022;12.968;2022-11-20T23:23:24;1.50;;;1.40;;
15383;SDS011;7790;53.022;12.968;2022-11-20T23:27:25;1.67;;;1.57;;
15383;SDS011;7790;53.022;12.968;2022-11-20T23:31:27;1.53;;;1.43;;
15383;SDS011;7790;53.022;12.968;2022-11-20T23:35:29;1.73;;;1.50;;
15383;SDS011;7790;53.022;12.968;2022-11-20T23:39:30;1.60;;;1.50;;
15383;SDS011;7790;53.022;12.968;2022-11-20T23:43:31;1.33;;;1.30;;
15383;SDS011;7790;53.022;12.968;2022-11-20T23:47:32;1.47;;;1.33;;
15383;SDS011;7790;53.022;12.968;2022-11-20T23:51:32;2.07;;;1.30;;
15383;SDS011;7790;53.022;12.968;2022-11-20T23:55:33;1.40;;;1.40;;
15383;SDS011;7790;53.022;12.968;2022-11-20T23:59:34;1.67;;;1.57;;
